createdAt,value
2019-05-02T00:00:12.983Z,100607.53
2019-05-02T00:02:41.901Z,100609.83
2019-05-02T00:05:11.488Z,100611.45
2019-05-02T00:07:41.847Z,100603.06
2019-05-02T00:10:13.483Z,100603.31
2019-05-02T00:12:43.235Z,100603.23
2019-05-02T00:15:14.962Z,100598.61
2019-05-02T00:17:43.586Z,100596.25
2019-05-02T00:20:13.890Z,100597.70
2019-05-02T00:22:42.503Z,100598.30
2019-05-02T00:25:16.078Z,100593.68
2019-05-02T00:27:41.894Z,100592.30
2019-05-02T00:30:12.692Z,100590.65
2019-05-02T00:32:41.322Z,100593.16
2019-05-02T00:35:09.925Z,100593.39
2019-05-02T00:37:38.552Z,100587.98
2019-05-02T00:40:07.689Z,100588.59
2019-05-02T00:42:36.331Z,100589.77
2019-05-02T00:45:05.226Z,100584.32
2019-05-02T00:47:49.814Z,100587.05
2019-05-02T00:50:18.848Z,100578.85
2019-05-02T00:52:47.599Z,100580.63
2019-05-02T00:55:16.239Z,100578.59
2019-05-02T00:57:44.701Z,100571.39
2019-05-02T01:00:18.190Z,100578.31
2019-05-02T01:02:49.674Z,100581.01
2019-05-02T01:05:18.303Z,100578.98
2019-05-02T01:07:46.921Z,100571.09
2019-05-02T01:10:17.334Z,100569.09
2019-05-02T01:12:46.244Z,100566.77
2019-05-02T01:15:14.986Z,100562.16
2019-05-02T01:17:43.507Z,100564.92
2019-05-02T01:20:12.468Z,100557.07
2019-05-02T01:22:41.196Z,100555.62
2019-05-02T01:25:15.009Z,100558.01
2019-05-02T01:27:46.873Z,100556.13
2019-05-02T01:30:44.566Z,100552.34
2019-05-02T01:33:28.324Z,100550.06
2019-05-02T01:36:25.620Z,100550.06
2019-05-02T01:38:54.159Z,100543.87
2019-05-02T01:41:23.967Z,100544.30
2019-05-02T01:43:55.068Z,100538.45
2019-05-02T01:46:24.195Z,100539.25
2019-05-02T01:48:52.857Z,100538.13
2019-05-02T01:51:21.359Z,100533.66
2019-05-02T01:53:49.898Z,100536.09
2019-05-02T01:56:18.514Z,100532.96
2019-05-02T01:58:47.042Z,100531.03
2019-05-02T02:01:16.219Z,100532.96
2019-05-02T02:03:46.982Z,100531.94
2019-05-02T02:06:15.788Z,100531.03
2019-05-02T02:08:44.528Z,100533.98
2019-05-02T02:11:13.141Z,100530.67
2019-05-02T02:13:41.758Z,100525.88
2019-05-02T02:16:10.501Z,100527.11
2019-05-02T02:18:45.235Z,100524.05
2019-05-02T02:21:31.051Z,100525.94
2019-05-02T02:24:06.940Z,100527.14
2019-05-02T02:26:35.481Z,100529.79
2019-05-02T02:29:07.884Z,100522.81
2019-05-02T02:31:39.723Z,100523.83
2019-05-02T02:34:05.326Z,100521.41
2019-05-02T02:36:34.696Z,100521.56
2019-05-02T02:39:06.832Z,100518.47
2019-05-02T02:41:36.571Z,100520.23
2019-05-02T02:44:33.574Z,100522.63
2019-05-02T02:47:04.524Z,100520.34
2019-05-02T02:49:33.066Z,100519.84
2019-05-02T02:52:04.933Z,100521.65
2019-05-02T02:54:36.580Z,100518.42
2019-05-02T02:57:03.238Z,100516.48
2019-05-02T02:59:31.755Z,100525.94
2019-05-02T03:02:09.214Z,100529.28
2019-05-02T03:04:30.835Z,100525.33
2019-05-02T03:06:59.550Z,100523.54
2019-05-02T03:09:29.101Z,100516.11
2019-05-02T03:12:17.519Z,100515.81
2019-05-02T03:14:51.118Z,100516.11
2019-05-02T03:17:26.429Z,100504.64
2019-05-02T03:19:54.333Z,100504.91
2019-05-02T03:22:21.077Z,100500.12
2019-05-02T03:24:49.616Z,100496.48
2019-05-02T03:27:18.249Z,100502.21
2019-05-02T03:29:46.864Z,100496.16
2019-05-02T03:32:30.169Z,100501.41
2019-05-02T03:34:51.698Z,100497.90
2019-05-02T03:37:16.868Z,100494.92
2019-05-02T03:39:49.534Z,100490.00
2019-05-02T03:42:17.247Z,100496.25
2019-05-02T03:44:54.906Z,100502.08
2019-05-02T03:47:16.565Z,100496.91
2019-05-02T03:49:48.539Z,100491.71
2019-05-02T03:52:16.032Z,100494.00
2019-05-02T03:54:49.959Z,100495.33
2019-05-02T03:57:15.365Z,100494.30
2019-05-02T03:59:43.988Z,100491.53
2019-05-02T04:02:20.361Z,100482.42
2019-05-02T04:04:45.023Z,100483.33
2019-05-02T04:07:14.236Z,100481.72
2019-05-02T04:09:42.957Z,100483.32
2019-05-02T04:12:18.664Z,100480.09
2019-05-02T04:14:42.250Z,100480.50
2019-05-02T04:17:11.067Z,100476.48
2019-05-02T04:19:40.309Z,100475.94
2019-05-02T04:22:11.949Z,100471.56
2019-05-02T04:24:40.817Z,100471.28
2019-05-02T04:27:10.529Z,100469.01
2019-05-02T04:29:39.293Z,100475.83
2019-05-02T04:32:11.836Z,100472.97
2019-05-02T04:34:38.486Z,100474.84
2019-05-02T04:37:06.997Z,100479.38
2019-05-02T04:39:38.846Z,100473.20
2019-05-02T04:42:16.341Z,100468.47
2019-05-02T04:44:47.827Z,100474.58
2019-05-02T04:47:16.669Z,100474.73
2019-05-02T04:49:39.294Z,100468.36
2019-05-02T04:52:11.648Z,100467.87
2019-05-02T04:54:39.045Z,100472.84
2019-05-02T04:57:08.545Z,100474.94
2019-05-02T04:59:39.505Z,100469.03
2019-05-02T05:02:08.972Z,100460.25
2019-05-02T05:04:42.388Z,100457.07
2019-05-02T05:07:09.390Z,100454.93
2019-05-02T05:09:39.919Z,100453.77
2019-05-02T05:12:08.952Z,100446.13
2019-05-02T05:14:41.266Z,100455.27
2019-05-02T05:17:08.124Z,100452.16
2019-05-02T05:19:37.347Z,100456.49
2019-05-02T05:22:08.810Z,100460.72
2019-05-02T05:24:42.608Z,100465.31
2019-05-02T05:27:13.172Z,100472.91
2019-05-02T05:29:41.953Z,100469.00
2019-05-02T05:32:10.571Z,100477.48
2019-05-02T05:34:39.183Z,100475.98
2019-05-02T05:37:09.522Z,100475.73
2019-05-02T05:39:43.208Z,100477.70
2019-05-02T05:42:10.700Z,100471.37
2019-05-02T05:44:39.887Z,100471.53
2019-05-02T05:47:12.190Z,100467.02
2019-05-02T05:49:39.716Z,100473.85
2019-05-02T05:52:08.335Z,100467.30
2019-05-02T05:54:38.360Z,100467.30
2019-05-02T05:57:07.657Z,100457.52
2019-05-02T05:59:38.030Z,100465.64
2019-05-02T06:02:13.161Z,100463.27
2019-05-02T06:04:38.696Z,100453.47
2019-05-02T06:07:07.473Z,100457.35
2019-05-02T06:09:36.012Z,100463.47
2019-05-02T06:12:04.730Z,100464.61
2019-05-02T06:14:34.560Z,100464.72
2019-05-02T06:17:03.485Z,100461.48
2019-05-02T06:19:31.993Z,100460.81
2019-05-02T06:22:00.599Z,100463.89
2019-05-02T06:24:29.128Z,100456.14
2019-05-02T06:26:57.657Z,100452.34
2019-05-02T06:29:26.275Z,100451.80
2019-05-02T06:32:00.409Z,100448.88
2019-05-02T06:34:28.651Z,100440.55
2019-05-02T06:36:57.331Z,100440.61
2019-05-02T06:39:27.049Z,100440.69
2019-05-02T06:41:57.514Z,100440.05
2019-05-02T06:44:26.935Z,100432.98
2019-05-02T06:46:59.147Z,100429.23
2019-05-02T06:49:26.126Z,100428.99
2019-05-02T06:51:56.217Z,100429.57
2019-05-02T06:54:25.011Z,100426.77
2019-05-02T06:56:53.537Z,100420.00
2019-05-02T06:59:22.160Z,100422.49
2019-05-02T07:01:52.344Z,100421.86
2019-05-02T07:04:22.885Z,100423.02
2019-05-02T07:06:58.862Z,100423.31
2019-05-02T07:09:22.542Z,100420.81
2019-05-02T07:11:57.473Z,100419.11
2019-05-02T07:14:23.604Z,100424.80
2019-05-02T07:16:58.969Z,100427.63
2019-05-02T07:19:32.180Z,100430.22
2019-05-02T07:22:04.182Z,100429.10
2019-05-02T07:24:32.713Z,100433.02
2019-05-02T07:27:02.359Z,100433.55
2019-05-02T07:29:31.435Z,100435.02
2019-05-02T07:32:00.060Z,100429.12
2019-05-02T07:34:28.553Z,100433.08
2019-05-02T07:36:57.180Z,100429.17
2019-05-02T07:39:25.874Z,100426.09
2019-05-02T07:41:54.483Z,100428.36
2019-05-02T07:44:27.266Z,100423.33
2019-05-02T07:46:56.897Z,100424.44
2019-05-02T07:49:26.614Z,100422.22
2019-05-02T07:51:57.637Z,100428.34
2019-05-02T07:54:26.798Z,100435.88
2019-05-02T07:56:55.459Z,100436.33
2019-05-02T07:59:25.128Z,100433.09
2019-05-02T08:01:53.897Z,100433.63
2019-05-02T08:04:22.580Z,100432.52
2019-05-02T08:06:51.090Z,100437.25
2019-05-02T08:09:19.847Z,100432.19
2019-05-02T08:11:48.520Z,100431.30
2019-05-02T08:14:17.145Z,100433.90
2019-05-02T08:16:45.824Z,100429.12
2019-05-02T08:19:14.315Z,100431.05
2019-05-02T08:21:42.816Z,100431.53
2019-05-02T08:24:11.878Z,100427.09
2019-05-02T08:26:58.384Z,100428.83
2019-05-02T08:29:28.918Z,100427.78
2019-05-02T08:31:57.712Z,100432.41
2019-05-02T08:34:30.957Z,100423.01
2019-05-02T08:37:03.289Z,100422.34
2019-05-02T08:39:33.754Z,100420.83
2019-05-02T08:42:01.338Z,100419.58
2019-05-02T08:44:29.860Z,100420.37
2019-05-02T08:46:58.483Z,100420.77
2019-05-02T08:49:27.136Z,100418.36
2019-05-02T08:51:55.741Z,100405.98
2019-05-02T08:54:27.949Z,100411.53
2019-05-02T08:56:59.198Z,100413.05
2019-05-02T08:59:26.206Z,100407.91
2019-05-02T09:01:54.994Z,100411.48
2019-05-02T09:04:24.256Z,100409.30
2019-05-02T09:06:58.696Z,100403.79
2019-05-02T09:09:27.959Z,100407.14
2019-05-02T09:12:06.884Z,100403.06
2019-05-02T09:14:25.270Z,100399.20
2019-05-02T09:16:53.889Z,100397.39
2019-05-02T09:19:26.465Z,100398.29
2019-05-02T09:21:52.863Z,100390.94
2019-05-02T09:24:23.973Z,100387.94
2019-05-02T09:26:52.053Z,100381.05
2019-05-02T09:29:22.239Z,100384.16
2019-05-02T09:31:52.694Z,100373.55
2019-05-02T09:34:22.924Z,100373.02
2019-05-02T09:36:52.928Z,100371.20
2019-05-02T09:39:22.732Z,100370.91
2019-05-02T09:41:52.655Z,100368.23
2019-05-02T09:44:22.451Z,100370.09
2019-05-02T09:46:53.073Z,100365.53
2019-05-02T09:49:22.159Z,100364.28
2019-05-02T09:51:59.175Z,100357.59
2019-05-02T09:54:23.104Z,100353.02
2019-05-02T09:56:52.485Z,100350.89
2019-05-02T09:59:32.847Z,100342.05
2019-05-02T10:02:03.379Z,100333.20
2019-05-02T10:04:32.558Z,100333.22
2019-05-02T10:07:02.521Z,100327.03
2019-05-02T10:09:32.413Z,100322.14
2019-05-02T10:12:02.112Z,100333.66
2019-05-02T10:14:33.012Z,100323.02
2019-05-02T10:17:07.005Z,100315.37
2019-05-02T10:19:33.227Z,100314.23
2019-05-02T10:22:02.075Z,100306.73
2019-05-02T10:24:32.220Z,100314.53
2019-05-02T10:27:04.175Z,100303.76
2019-05-02T10:29:32.917Z,100304.83
2019-05-02T10:32:01.896Z,100295.95
2019-05-02T10:34:32.787Z,100304.95
2019-05-02T10:37:02.940Z,100306.99
2019-05-02T10:39:34.029Z,100283.57
2019-05-02T10:42:02.375Z,100294.41
2019-05-02T10:44:32.633Z,100295.20
2019-05-02T10:47:02.902Z,100287.38
2019-05-02T10:49:43.711Z,100270.88
2019-05-02T10:52:12.369Z,100276.16
2019-05-02T10:54:42.175Z,100264.09
2019-05-02T10:57:12.623Z,100269.98
2019-05-02T10:59:42.056Z,100268.78
2019-05-02T11:02:42.485Z,100272.97
2019-05-02T11:05:16.910Z,100255.48
2019-05-02T11:07:47.866Z,100268.74
2019-05-02T11:10:16.716Z,100266.77
2019-05-02T11:12:56.323Z,100266.77
2019-05-02T11:15:43.915Z,100265.44
2019-05-02T11:18:13.116Z,100256.70
2019-05-02T11:20:42.190Z,100253.59
2019-05-02T11:23:12.675Z,100244.84
2019-05-02T11:25:42.121Z,100250.77
2019-05-02T11:28:12.421Z,100248.30
2019-05-02T11:30:42.300Z,100244.67
2019-05-02T11:33:13.352Z,100223.20
2019-05-02T11:35:48.784Z,100223.20
2019-05-02T11:38:25.963Z,100221.38
2019-05-02T11:40:42.661Z,100227.30
2019-05-02T11:43:11.617Z,100227.30
2019-05-02T11:45:40.228Z,100223.57
2019-05-02T11:48:11.339Z,100225.85
2019-05-02T11:50:39.512Z,100228.23
2019-05-02T11:53:22.276Z,100217.58
2019-05-02T11:55:41.311Z,100219.58
2019-05-02T11:58:10.643Z,100227.57
2019-05-02T12:00:44.514Z,100231.02
2019-05-02T12:03:18.390Z,100228.39
2019-05-02T12:05:47.045Z,100223.59
2019-05-02T12:08:15.692Z,100227.23
2019-05-02T12:10:44.428Z,100221.59
2019-05-02T12:13:15.930Z,100207.06
2019-05-02T12:15:44.393Z,100201.33
2019-05-02T12:18:13.026Z,100192.08
2019-05-02T12:20:42.539Z,100194.00
2019-05-02T12:23:13.000Z,100175.00
2019-05-02T12:25:42.295Z,100175.00
2019-05-02T12:28:11.973Z,100191.00
2019-05-02T12:30:41.873Z,100192.83
2019-05-02T12:33:12.256Z,100181.14
2019-05-02T12:35:43.304Z,100190.91
2019-05-02T12:38:12.295Z,100180.37
2019-05-02T12:40:42.197Z,100176.04
2019-05-02T12:43:12.029Z,100192.70
2019-05-02T12:45:42.180Z,100179.27
2019-05-02T12:48:12.983Z,100166.98
2019-05-02T12:50:42.004Z,100178.04
2019-05-02T12:53:12.615Z,100179.37
2019-05-02T12:55:42.161Z,100169.09
2019-05-02T12:58:12.497Z,100163.81
2019-05-02T13:00:43.105Z,100163.58
2019-05-02T13:03:31.691Z,100151.62
2019-05-02T13:06:00.579Z,100151.95
2019-05-02T13:08:29.503Z,100145.87
2019-05-02T13:11:17.900Z,100140.98
2019-05-02T13:13:46.690Z,100144.59
2019-05-02T13:16:17.365Z,100143.48
2019-05-02T13:18:45.990Z,100136.93
2019-05-02T13:21:20.818Z,100139.05
2019-05-02T13:24:07.529Z,100133.42
2019-05-02T13:26:34.355Z,100139.98
2019-05-02T13:29:03.138Z,100145.58
2019-05-02T13:31:38.258Z,100131.41
2019-05-02T13:34:22.258Z,100129.78
2019-05-02T13:36:51.925Z,100134.77
2019-05-02T13:39:32.647Z,100129.77
2019-05-02T13:42:01.767Z,100127.17
2019-05-02T13:44:33.108Z,100118.71
2019-05-02T13:47:02.707Z,100120.27
2019-05-02T13:49:32.429Z,100113.30
2019-05-02T13:52:02.514Z,100115.45
2019-05-02T13:54:32.960Z,100104.06
2019-05-02T13:57:03.135Z,100108.28
2019-05-02T13:59:33.727Z,100108.13
2019-05-02T14:02:05.187Z,100113.11
2019-05-02T14:04:33.957Z,100105.45
2019-05-02T14:07:03.147Z,100110.62
2019-05-02T14:09:50.853Z,100101.53
2019-05-02T14:12:55.028Z,100098.53
2019-05-02T14:15:26.761Z,100100.92
2019-05-02T14:17:55.507Z,100096.48
2019-05-02T14:20:24.218Z,100101.61
2019-05-02T14:22:52.998Z,100101.97
2019-05-02T14:25:22.336Z,100099.69
2019-05-02T14:27:55.324Z,100104.49
2019-05-02T14:30:36.012Z,100111.47
2019-05-02T14:32:55.235Z,100102.23
2019-05-02T14:35:28.302Z,100111.55
2019-05-02T14:38:13.777Z,100118.03
2019-05-02T14:40:53.455Z,100120.83
2019-05-02T14:43:44.494Z,100131.92
2019-05-02T14:46:12.461Z,100125.02
2019-05-02T14:48:45.272Z,100132.78
2019-05-02T14:51:16.562Z,100138.52
2019-05-02T14:53:43.468Z,100142.70
2019-05-02T14:56:17.699Z,100136.72
2019-05-02T14:58:46.419Z,100140.86
2019-05-02T15:01:17.138Z,100132.03
2019-05-02T15:03:45.557Z,100144.00
2019-05-02T15:06:14.183Z,100140.41
2019-05-02T15:08:44.899Z,100140.91
2019-05-02T15:11:13.354Z,100137.61
2019-05-02T15:13:43.672Z,100134.60
2019-05-02T15:16:17.768Z,100129.02
2019-05-02T15:18:47.540Z,100135.13
2019-05-02T15:21:22.349Z,100137.23
2019-05-02T15:24:33.346Z,100131.45
2019-05-02T15:27:05.530Z,100131.82
2019-05-02T15:29:29.406Z,100136.88
2019-05-02T15:32:16.485Z,100126.50
2019-05-02T15:35:02.386Z,100122.97
2019-05-02T15:37:32.160Z,100124.55
2019-05-02T15:42:33.961Z,100117.91
2019-05-02T15:45:05.597Z,100114.83
2019-05-02T15:47:37.070Z,100117.97
2019-05-02T15:50:04.523Z,100118.59
2019-05-02T15:52:34.975Z,100113.02
2019-05-02T15:55:04.379Z,100106.06
2019-05-02T15:57:43.136Z,100101.77
2019-05-02T16:00:05.773Z,100102.74
2019-05-02T16:02:34.315Z,100105.45
2019-05-02T16:05:05.426Z,100105.18
2019-05-02T16:07:38.127Z,100100.89
2019-05-02T16:10:04.801Z,100102.66
2019-05-02T16:12:36.050Z,100106.80
2019-05-02T16:15:12.944Z,100104.66
2019-05-02T16:17:35.946Z,100113.02
2019-05-02T16:20:16.770Z,100122.44
2019-05-02T16:22:49.603Z,100118.73
2019-05-02T16:25:20.142Z,100124.35
2019-05-02T16:27:47.256Z,100123.41
2019-05-02T16:30:22.139Z,100130.38
2019-05-02T16:32:54.148Z,100128.77
2019-05-02T16:35:23.868Z,100121.07
2019-05-02T16:37:55.994Z,100136.38
2019-05-02T16:40:29.754Z,100138.59
2019-05-02T16:42:55.786Z,100140.62
2019-05-02T16:45:24.654Z,100140.06
2019-05-02T16:47:58.626Z,100143.17
2019-05-02T16:50:27.468Z,100136.20
2019-05-02T16:52:54.477Z,100138.93
2019-05-02T16:55:26.607Z,100134.84
2019-05-02T16:57:56.621Z,100140.41
2019-05-02T17:00:24.869Z,100138.03
2019-05-02T17:02:53.596Z,100134.92
2019-05-02T17:05:22.335Z,100137.12
2019-05-02T17:08:10.857Z,100141.06
2019-05-02T17:10:52.086Z,100137.33
2019-05-02T17:13:17.681Z,100134.09
2019-05-02T17:15:46.330Z,100138.01
2019-05-02T17:18:17.995Z,100137.98
2019-05-02T17:20:46.970Z,100140.84
2019-05-02T17:23:16.193Z,100135.33
2019-05-02T17:25:44.904Z,100136.16
2019-05-02T17:28:13.516Z,100138.70
2019-05-02T17:30:43.062Z,100140.91
2019-05-02T17:33:15.902Z,100140.83
2019-05-02T17:35:49.360Z,100143.60
2019-05-02T17:38:12.710Z,100134.95
2019-05-02T17:40:42.205Z,100143.89
2019-05-02T17:43:11.031Z,100145.51
2019-05-02T17:45:40.315Z,100147.48
2019-05-02T17:48:15.689Z,100141.36
2019-05-02T17:50:59.550Z,100151.95
2019-05-02T17:53:33.781Z,100150.86
2019-05-02T17:55:59.227Z,100143.84
2019-05-02T17:58:27.743Z,100145.51
2019-05-02T18:01:00.162Z,100142.50
2019-05-02T18:03:31.131Z,100142.45
2019-05-02T18:05:59.373Z,100143.05
2019-05-02T18:08:27.981Z,100151.95
2019-05-02T18:11:00.137Z,100140.47
2019-05-02T18:13:29.174Z,100142.70
2019-05-02T18:15:57.521Z,100147.20
2019-05-02T18:18:26.165Z,100143.55
2019-05-02T18:20:54.803Z,100138.52
2019-05-02T18:23:27.391Z,100149.41
2019-05-02T18:25:57.411Z,100145.27
2019-05-02T18:28:26.430Z,100147.75
2019-05-02T18:30:57.181Z,100146.95
2019-05-02T18:33:25.386Z,100152.25
2019-05-02T18:35:54.120Z,100146.64
2019-05-02T18:38:22.758Z,100149.13
2019-05-02T18:40:52.450Z,100151.62
2019-05-02T18:43:22.387Z,100154.19
2019-05-02T18:45:51.604Z,100159.48
2019-05-02T18:48:21.832Z,100160.58
2019-05-02T18:50:52.616Z,100158.09
2019-05-02T18:53:25.708Z,100165.05
2019-05-02T18:55:52.247Z,100162.27
2019-05-02T18:58:22.714Z,100161.45
2019-05-02T19:00:52.101Z,100164.22
2019-05-02T19:03:22.860Z,100161.75
2019-05-02T19:05:56.673Z,100173.18
2019-05-02T19:08:29.141Z,100170.95
2019-05-02T19:11:04.744Z,100175.44
2019-05-02T19:13:23.519Z,100180.72
2019-05-02T19:15:53.443Z,100185.73
2019-05-02T19:18:22.438Z,100182.95
2019-05-02T19:21:00.342Z,100180.46
2019-05-02T19:23:31.982Z,100186.02
2019-05-02T19:26:02.314Z,100185.49
2019-05-02T19:29:02.301Z,100182.41
2019-05-02T19:31:44.401Z,100188.53
2019-05-02T19:34:07.460Z,100186.02
2019-05-02T19:36:36.174Z,100182.37
2019-05-02T19:39:09.835Z,100187.98
2019-05-02T19:41:39.021Z,100184.07
2019-05-02T19:44:08.448Z,100181.84
2019-05-02T19:46:38.871Z,100192.14
2019-05-02T19:49:12.483Z,100191.34
2019-05-02T19:51:38.388Z,100191.91
2019-05-02T19:54:07.213Z,100193.83
2019-05-02T19:56:45.331Z,100193.84
2019-05-02T19:59:06.586Z,100191.89
2019-05-02T20:01:35.392Z,100192.74
2019-05-02T20:04:06.101Z,100198.05
2019-05-02T20:06:34.865Z,100202.47
2019-05-02T20:09:08.288Z,100197.22
2019-05-02T20:11:36.317Z,100200.83
2019-05-02T20:14:09.302Z,100210.56
2019-05-02T20:16:45.788Z,100220.04
2019-05-02T20:19:17.274Z,100221.44
2019-05-02T20:21:57.149Z,100220.58
2019-05-02T20:24:49.160Z,100225.58
2019-05-02T20:27:15.444Z,100234.48
2019-05-02T20:29:44.417Z,100232.52
2019-05-02T20:32:13.129Z,100236.65
2019-05-02T20:34:41.936Z,100234.08
2019-05-02T20:37:12.610Z,100240.97
2019-05-02T20:39:41.628Z,100242.33
2019-05-02T20:42:12.103Z,100237.28
2019-05-02T20:44:41.891Z,100235.84
2019-05-02T20:47:14.112Z,100243.27
2019-05-02T20:49:42.640Z,100242.12
2019-05-02T20:52:11.937Z,100250.74
2019-05-02T20:54:42.679Z,100245.94
2019-05-02T20:57:11.998Z,100250.59
2019-05-02T20:59:41.701Z,100250.91
2019-05-02T21:02:12.242Z,100254.41
2019-05-02T21:04:42.541Z,100255.49
2019-05-02T21:07:19.010Z,100254.63
2019-05-02T21:09:54.204Z,100257.95
2019-05-02T21:12:22.910Z,100257.98
2019-05-02T21:14:52.320Z,100257.11
2019-05-02T21:17:22.077Z,100264.30
2019-05-02T21:19:50.804Z,100257.64
2019-05-02T21:22:24.157Z,100260.97
2019-05-02T21:24:53.018Z,100257.16
2019-05-02T21:27:21.911Z,100257.70
2019-05-02T21:29:52.254Z,100262.67
2019-05-02T21:32:22.926Z,100270.44
2019-05-02T21:34:52.025Z,100264.58
2019-05-02T21:37:22.619Z,100273.49
2019-05-02T21:39:52.069Z,100273.21
2019-05-02T21:42:22.556Z,100278.04
2019-05-02T21:44:51.824Z,100284.49
2019-05-02T21:47:22.319Z,100279.50
2019-05-02T21:50:01.825Z,100280.02
2019-05-02T21:52:55.967Z,100279.08
2019-05-02T21:55:52.068Z,100276.02
2019-05-02T21:58:21.589Z,100278.28
2019-05-02T22:00:59.314Z,100280.98
2019-05-02T22:03:27.849Z,100285.70
2019-05-02T22:05:56.748Z,100287.64
2019-05-02T22:08:25.404Z,100291.80
2019-05-02T22:10:53.928Z,100293.75
2019-05-02T22:13:22.573Z,100294.02
2019-05-02T22:15:51.656Z,100288.95
2019-05-02T22:18:21.633Z,100289.08
2019-05-02T22:20:52.245Z,100289.31
2019-05-02T22:23:20.911Z,100290.13
2019-05-02T22:25:49.456Z,100298.74
2019-05-02T22:28:18.000Z,100298.65
2019-05-02T22:30:46.520Z,100295.97
2019-05-02T22:33:15.041Z,100304.65
2019-05-02T22:35:43.693Z,100304.38
2019-05-02T22:38:28.254Z,100305.20
2019-05-02T22:40:58.169Z,100307.38
2019-05-02T22:43:26.684Z,100309.69
2019-05-02T22:45:55.196Z,100315.02
2019-05-02T22:48:23.834Z,100319.91
2019-05-02T22:50:52.387Z,100322.69
2019-05-02T22:53:21.605Z,100318.80
2019-05-02T22:55:51.801Z,100329.95
2019-05-02T22:58:21.888Z,100324.78
2019-05-02T23:00:52.227Z,100328.95
2019-05-02T23:03:21.501Z,100320.98
2019-05-02T23:05:52.612Z,100324.84
2019-05-02T23:08:21.954Z,100320.70
2019-05-02T23:10:51.937Z,100320.20
2019-05-02T23:13:21.976Z,100318.33
2019-05-02T23:15:52.154Z,100329.95
2019-05-02T23:18:22.686Z,100329.91
2019-05-02T23:20:52.610Z,100333.20
2019-05-02T23:23:21.583Z,100331.77
2019-05-02T23:26:13.811Z,100342.04
2019-05-02T23:28:44.563Z,100340.97
2019-05-02T23:31:14.060Z,100346.72
2019-05-02T23:33:57.913Z,100348.73
2019-05-02T23:36:28.240Z,100338.43
2019-05-02T23:38:57.404Z,100342.36
2019-05-02T23:41:26.141Z,100346.84
2019-05-02T23:43:54.880Z,100338.83
2019-05-02T23:46:23.605Z,100340.49
2019-05-02T23:48:52.685Z,100340.36
2019-05-02T23:51:22.588Z,100340.84
2019-05-02T23:53:52.794Z,100339.33
2019-05-02T23:56:22.146Z,100344.73
2019-05-02T23:58:51.948Z,100347.22
